sensor_id;sensor_type;location;lat;lon;timestamp;P1;durP1;ratioP1;P2;durP2;ratioP2
13202;SDS011;6666;51.626;7.530;2024-02-26T00:00:23;3.75;;;2.30;;
13202;SDS011;6666;51.626;7.530;2024-02-26T00:02:51;4.63;;;2.33;;
13202;SDS011;6666;51.626;7.530;2024-02-26T00:05:19;3.50;;;2.22;;
13202;SDS011;6666;51.626;7.530;2024-02-26T00:07:49;2.33;;;2.13;;
13202;SDS011;6666;51.626;7.530;2024-02-26T00:10:17;2.60;;;2.40;;
13202;SDS011;6666;51.626;7.530;2024-02-26T00:12:45;4.30;;;2.30;;
13202;SDS011;6666;51.626;7.530;2024-02-26T00:15:14;4.57;;;2.47;;
13202;SDS011;6666;51.626;7.530;2024-02-26T00:17:42;5.33;;;2.30;;
13202;SDS011;6666;51.626;7.530;2024-02-26T00:20:11;3.08;;;2.30;;
13202;SDS011;6666;51.626;7.530;2024-02-26T00:22:40;4.63;;;2.05;;
13202;SDS011;6666;51.626;7.530;2024-02-26T00:25:09;2.60;;;2.40;;
13202;SDS011;6666;51.626;7.530;2024-02-26T00:27:38;4.25;;;2.15;;
13202;SDS011;6666;51.626;7.530;2024-02-26T00:30:08;2.58;;;1.95;;
13202;SDS011;6666;51.626;7.530;2024-02-26T00:32:37;3.15;;;2.30;;
13202;SDS011;6666;51.626;7.530;2024-02-26T00:35:06;3.72;;;2.10;;
13202;SDS011;6666;51.626;7.530;2024-02-26T00:37:35;1.83;;;1.73;;
13202;SDS011;6666;51.626;7.530;2024-02-26T00:40:04;2.70;;;2.10;;
13202;SDS011;6666;51.626;7.530;2024-02-26T00:42:36;3.40;;;1.80;;
13202;SDS011;6666;51.626;7.530;2024-02-26T00:45:04;3.33;;;2.00;;
13202;SDS011;6666;51.626;7.530;2024-02-26T00:47:33;2.92;;;2.00;;
13202;SDS011;6666;51.626;7.530;2024-02-26T00:50:01;1.80;;;1.70;;
13202;SDS011;6666;51.626;7.530;2024-02-26T00:52:30;2.10;;;1.90;;
13202;SDS011;6666;51.626;7.530;2024-02-26T00:54:58;2.20;;;1.77;;
13202;SDS011;6666;51.626;7.530;2024-02-26T00:57:26;2.63;;;1.90;;
13202;SDS011;6666;51.626;7.530;2024-02-26T00:59:55;3.17;;;2.00;;
13202;SDS011;6666;51.626;7.530;2024-02-26T01:02:23;3.07;;;1.80;;
13202;SDS011;6666;51.626;7.530;2024-02-26T01:04:51;2.65;;;1.75;;
13202;SDS011;6666;51.626;7.530;2024-02-26T01:07:20;4.78;;;1.77;;
13202;SDS011;6666;51.626;7.530;2024-02-26T01:09:48;2.20;;;2.00;;
13202;SDS011;6666;51.626;7.530;2024-02-26T01:12:16;2.30;;;2.00;;
13202;SDS011;6666;51.626;7.530;2024-02-26T01:14:44;2.60;;;1.50;;
13202;SDS011;6666;51.626;7.530;2024-02-26T01:17:14;2.25;;;1.85;;
13202;SDS011;6666;51.626;7.530;2024-02-26T01:19:42;2.10;;;1.80;;
13202;SDS011;6666;51.626;7.530;2024-02-26T01:22:10;1.80;;;1.52;;
13202;SDS011;6666;51.626;7.530;2024-02-26T01:24:38;2.80;;;1.67;;
13202;SDS011;6666;51.626;7.530;2024-02-26T01:27:06;1.80;;;1.60;;
13202;SDS011;6666;51.626;7.530;2024-02-26T01:29:35;2.58;;;1.80;;
13202;SDS011;6666;51.626;7.530;2024-02-26T01:32:03;1.90;;;1.70;;
13202;SDS011;6666;51.626;7.530;2024-02-26T01:34:33;2.60;;;1.60;;
13202;SDS011;6666;51.626;7.530;2024-02-26T01:37:03;1.60;;;1.42;;
13202;SDS011;6666;51.626;7.530;2024-02-26T01:39:31;2.30;;;1.70;;
13202;SDS011;6666;51.626;7.530;2024-02-26T01:42:00;2.50;;;1.50;;
13202;SDS011;6666;51.626;7.530;2024-02-26T01:44:28;3.20;;;1.60;;
13202;SDS011;6666;51.626;7.530;2024-02-26T01:46:56;2.90;;;1.80;;
13202;SDS011;6666;51.626;7.530;2024-02-26T01:49:24;2.80;;;1.63;;
13202;SDS011;6666;51.626;7.530;2024-02-26T01:51:54;2.80;;;1.60;;
13202;SDS011;6666;51.626;7.530;2024-02-26T01:54:22;2.10;;;1.50;;
13202;SDS011;6666;51.626;7.530;2024-02-26T01:56:51;1.75;;;1.40;;
13202;SDS011;6666;51.626;7.530;2024-02-26T01:59:19;1.73;;;1.50;;
13202;SDS011;6666;51.626;7.530;2024-02-26T02:01:52;2.03;;;1.50;;
13202;SDS011;6666;51.626;7.530;2024-02-26T02:04:22;1.42;;;1.30;;
13202;SDS011;6666;51.626;7.530;2024-02-26T02:06:51;1.60;;;1.20;;
13202;SDS011;6666;51.626;7.530;2024-02-26T02:09:21;2.28;;;1.20;;
13202;SDS011;6666;51.626;7.530;2024-02-26T02:11:50;2.85;;;1.65;;
13202;SDS011;6666;51.626;7.530;2024-02-26T02:14:18;2.20;;;1.50;;
13202;SDS011;6666;51.626;7.530;2024-02-26T02:16:46;2.25;;;1.65;;
13202;SDS011;6666;51.626;7.530;2024-02-26T02:19:15;1.60;;;1.50;;
13202;SDS011;6666;51.626;7.530;2024-02-26T02:21:44;2.20;;;1.60;;
13202;SDS011;6666;51.626;7.530;2024-02-26T02:24:12;1.70;;;1.30;;
13202;SDS011;6666;51.626;7.530;2024-02-26T02:26:40;1.80;;;1.50;;
13202;SDS011;6666;51.626;7.530;2024-02-26T02:29:10;1.50;;;1.30;;
13202;SDS011;6666;51.626;7.530;2024-02-26T02:31:40;3.00;;;1.50;;
13202;SDS011;6666;51.626;7.530;2024-02-26T02:34:09;1.60;;;1.30;;
13202;SDS011;6666;51.626;7.530;2024-02-26T02:36:49;2.17;;;1.40;;
13202;SDS011;6666;51.626;7.530;2024-02-26T02:39:19;2.10;;;1.60;;
13202;SDS011;6666;51.626;7.530;2024-02-26T02:41:48;2.50;;;1.30;;
13202;SDS011;6666;51.626;7.530;2024-02-26T02:44:16;2.10;;;1.30;;
13202;SDS011;6666;51.626;7.530;2024-02-26T02:46:45;1.67;;;1.50;;
13202;SDS011;6666;51.626;7.530;2024-02-26T02:49:13;2.72;;;1.40;;
13202;SDS011;6666;51.626;7.530;2024-02-26T02:51:41;1.20;;;1.10;;
13202;SDS011;6666;51.626;7.530;2024-02-26T02:54:10;2.47;;;1.80;;
13202;SDS011;6666;51.626;7.530;2024-02-26T02:56:38;5.65;;;1.50;;
13202;SDS011;6666;51.626;7.530;2024-02-26T02:59:07;2.30;;;1.35;;
13202;SDS011;6666;51.626;7.530;2024-02-26T03:01:35;4.15;;;1.30;;
13202;SDS011;6666;51.626;7.530;2024-02-26T03:04:03;2.10;;;1.30;;
13202;SDS011;6666;51.626;7.530;2024-02-26T03:06:31;3.60;;;1.20;;
13202;SDS011;6666;51.626;7.530;2024-02-26T03:09:00;2.35;;;1.30;;
13202;SDS011;6666;51.626;7.530;2024-02-26T03:11:30;1.70;;;1.50;;
13202;SDS011;6666;51.626;7.530;2024-02-26T03:13:58;1.60;;;1.25;;
13202;SDS011;6666;51.626;7.530;2024-02-26T03:16:27;2.30;;;1.30;;
13202;SDS011;6666;51.626;7.530;2024-02-26T03:18:55;1.50;;;1.10;;
13202;SDS011;6666;51.626;7.530;2024-02-26T03:21:23;1.67;;;1.30;;
13202;SDS011;6666;51.626;7.530;2024-02-26T03:23:52;2.00;;;1.13;;
13202;SDS011;6666;51.626;7.530;2024-02-26T03:26:20;1.80;;;1.40;;
13202;SDS011;6666;51.626;7.530;2024-02-26T03:28:50;2.00;;;1.10;;
13202;SDS011;6666;51.626;7.530;2024-02-26T03:31:18;2.13;;;1.10;;
13202;SDS011;6666;51.626;7.530;2024-02-26T03:33:48;1.60;;;1.33;;
13202;SDS011;6666;51.626;7.530;2024-02-26T03:36:16;1.40;;;0.90;;
13202;SDS011;6666;51.626;7.530;2024-02-26T03:38:44;2.15;;;1.23;;
13202;SDS011;6666;51.626;7.530;2024-02-26T03:41:13;2.90;;;1.10;;
13202;SDS011;6666;51.626;7.530;2024-02-26T03:43:41;2.42;;;1.30;;
13202;SDS011;6666;51.626;7.530;2024-02-26T03:46:13;3.00;;;1.17;;
13202;SDS011;6666;51.626;7.530;2024-02-26T03:48:41;1.60;;;1.20;;
13202;SDS011;6666;51.626;7.530;2024-02-26T03:51:09;2.75;;;1.40;;
13202;SDS011;6666;51.626;7.530;2024-02-26T03:53:37;1.67;;;1.30;;
13202;SDS011;6666;51.626;7.530;2024-02-26T03:56:06;1.02;;;0.90;;
13202;SDS011;6666;51.626;7.530;2024-02-26T03:58:34;2.20;;;1.10;;
13202;SDS011;6666;51.626;7.530;2024-02-26T04:01:03;1.63;;;1.10;;
13202;SDS011;6666;51.626;7.530;2024-02-26T04:03:32;1.67;;;1.20;;
13202;SDS011;6666;51.626;7.530;2024-02-26T04:06:01;3.10;;;1.40;;
13202;SDS011;6666;51.626;7.530;2024-02-26T04:08:30;2.05;;;1.23;;
13202;SDS011;6666;51.626;7.530;2024-02-26T04:10:58;2.45;;;1.30;;
13202;SDS011;6666;51.626;7.530;2024-02-26T04:13:27;1.20;;;1.10;;
13202;SDS011;6666;51.626;7.530;2024-02-26T04:15:55;1.50;;;1.20;;
13202;SDS011;6666;51.626;7.530;2024-02-26T04:18:24;1.40;;;1.30;;
13202;SDS011;6666;51.626;7.530;2024-02-26T04:20:53;5.07;;;1.38;;
13202;SDS011;6666;51.626;7.530;2024-02-26T04:23:23;1.98;;;1.23;;
13202;SDS011;6666;51.626;7.530;2024-02-26T04:25:51;1.60;;;1.40;;
13202;SDS011;6666;51.626;7.530;2024-02-26T04:28:19;1.58;;;1.30;;
13202;SDS011;6666;51.626;7.530;2024-02-26T04:30:48;1.95;;;1.50;;
13202;SDS011;6666;51.626;7.530;2024-02-26T04:33:16;1.60;;;1.40;;
13202;SDS011;6666;51.626;7.530;2024-02-26T04:35:44;1.48;;;1.27;;
13202;SDS011;6666;51.626;7.530;2024-02-26T04:38:14;3.40;;;1.40;;
13202;SDS011;6666;51.626;7.530;2024-02-26T04:40:42;1.58;;;1.20;;
13202;SDS011;6666;51.626;7.530;2024-02-26T04:43:10;3.30;;;1.70;;
13202;SDS011;6666;51.626;7.530;2024-02-26T04:45:39;1.50;;;1.30;;
13202;SDS011;6666;51.626;7.530;2024-02-26T04:48:07;1.50;;;1.30;;
13202;SDS011;6666;51.626;7.530;2024-02-26T04:50:35;1.60;;;1.20;;
13202;SDS011;6666;51.626;7.530;2024-02-26T04:53:03;1.60;;;1.48;;
13202;SDS011;6666;51.626;7.530;2024-02-26T04:55:33;2.17;;;1.48;;
13202;SDS011;6666;51.626;7.530;2024-02-26T04:58:01;4.07;;;1.73;;
13202;SDS011;6666;51.626;7.530;2024-02-26T05:00:29;2.33;;;1.50;;
13202;SDS011;6666;51.626;7.530;2024-02-26T05:02:57;2.00;;;1.60;;
13202;SDS011;6666;51.626;7.530;2024-02-26T05:05:27;1.30;;;1.20;;
13202;SDS011;6666;51.626;7.530;2024-02-26T05:07:55;1.80;;;1.40;;
13202;SDS011;6666;51.626;7.530;2024-02-26T05:10:23;2.30;;;1.55;;
13202;SDS011;6666;51.626;7.530;2024-02-26T05:12:53;1.65;;;1.27;;
13202;SDS011;6666;51.626;7.530;2024-02-26T05:15:21;2.20;;;1.40;;
13202;SDS011;6666;51.626;7.530;2024-02-26T05:17:49;1.60;;;1.50;;
13202;SDS011;6666;51.626;7.530;2024-02-26T05:20:19;1.77;;;1.52;;
13202;SDS011;6666;51.626;7.530;2024-02-26T05:22:47;1.52;;;1.42;;
13202;SDS011;6666;51.626;7.530;2024-02-26T05:25:16;2.05;;;1.60;;
13202;SDS011;6666;51.626;7.530;2024-02-26T05:27:45;2.60;;;1.70;;
13202;SDS011;6666;51.626;7.530;2024-02-26T05:30:14;4.80;;;1.40;;
13202;SDS011;6666;51.626;7.530;2024-02-26T05:32:43;1.90;;;1.50;;
13202;SDS011;6666;51.626;7.530;2024-02-26T05:35:12;3.00;;;1.50;;
13202;SDS011;6666;51.626;7.530;2024-02-26T05:37:41;1.90;;;1.48;;
13202;SDS011;6666;51.626;7.530;2024-02-26T05:40:10;4.10;;;1.80;;
13202;SDS011;6666;51.626;7.530;2024-02-26T05:42:38;3.25;;;1.50;;
13202;SDS011;6666;51.626;7.530;2024-02-26T05:45:07;2.35;;;1.90;;
13202;SDS011;6666;51.626;7.530;2024-02-26T05:47:38;3.50;;;1.80;;
13202;SDS011;6666;51.626;7.530;2024-02-26T05:50:09;2.45;;;2.00;;
13202;SDS011;6666;51.626;7.530;2024-02-26T05:52:37;2.30;;;1.70;;
13202;SDS011;6666;51.626;7.530;2024-02-26T05:55:06;2.20;;;1.80;;
13202;SDS011;6666;51.626;7.530;2024-02-26T05:57:34;1.90;;;1.60;;
13202;SDS011;6666;51.626;7.530;2024-02-26T06:00:04;2.22;;;1.60;;
13202;SDS011;6666;51.626;7.530;2024-02-26T06:02:42;2.30;;;1.58;;
13202;SDS011;6666;51.626;7.530;2024-02-26T06:05:10;2.20;;;1.70;;
13202;SDS011;6666;51.626;7.530;2024-02-26T06:07:38;3.75;;;1.83;;
13202;SDS011;6666;51.626;7.530;2024-02-26T06:10:07;2.75;;;1.70;;
13202;SDS011;6666;51.626;7.530;2024-02-26T06:12:35;1.67;;;1.40;;
13202;SDS011;6666;51.626;7.530;2024-02-26T06:15:05;2.30;;;1.60;;
13202;SDS011;6666;51.626;7.530;2024-02-26T06:17:34;1.70;;;1.60;;
13202;SDS011;6666;51.626;7.530;2024-02-26T06:20:05;3.08;;;1.90;;
13202;SDS011;6666;51.626;7.530;2024-02-26T06:22:39;2.05;;;1.70;;
13202;SDS011;6666;51.626;7.530;2024-02-26T06:25:07;2.03;;;1.60;;
13202;SDS011;6666;51.626;7.530;2024-02-26T06:27:36;2.60;;;1.70;;
13202;SDS011;6666;51.626;7.530;2024-02-26T06:30:04;3.10;;;2.00;;
13202;SDS011;6666;51.626;7.530;2024-02-26T06:32:35;3.30;;;1.60;;
13202;SDS011;6666;51.626;7.530;2024-02-26T06:35:05;4.07;;;1.80;;
13202;SDS011;6666;51.626;7.530;2024-02-26T06:37:35;2.20;;;1.70;;
13202;SDS011;6666;51.626;7.530;2024-02-26T06:40:04;2.95;;;2.10;;
13202;SDS011;6666;51.626;7.530;2024-02-26T06:42:33;1.77;;;1.67;;
13202;SDS011;6666;51.626;7.530;2024-02-26T06:45:01;1.77;;;1.60;;
13202;SDS011;6666;51.626;7.530;2024-02-26T06:47:31;2.60;;;2.05;;
13202;SDS011;6666;51.626;7.530;2024-02-26T06:49:59;2.10;;;1.85;;
13202;SDS011;6666;51.626;7.530;2024-02-26T06:52:29;3.40;;;2.10;;
13202;SDS011;6666;51.626;7.530;2024-02-26T06:54:57;2.00;;;1.80;;
13202;SDS011;6666;51.626;7.530;2024-02-26T06:57:25;4.25;;;1.65;;
13202;SDS011;6666;51.626;7.530;2024-02-26T06:59:53;1.80;;;1.65;;
13202;SDS011;6666;51.626;7.530;2024-02-26T07:02:21;2.30;;;2.10;;
13202;SDS011;6666;51.626;7.530;2024-02-26T07:04:50;4.30;;;1.90;;
13202;SDS011;6666;51.626;7.530;2024-02-26T07:07:18;2.75;;;1.80;;
13202;SDS011;6666;51.626;7.530;2024-02-26T07:09:47;2.83;;;2.00;;
13202;SDS011;6666;51.626;7.530;2024-02-26T07:12:15;4.05;;;1.67;;
13202;SDS011;6666;51.626;7.530;2024-02-26T07:14:44;2.70;;;1.90;;
13202;SDS011;6666;51.626;7.530;2024-02-26T07:17:12;1.77;;;1.67;;
13202;SDS011;6666;51.626;7.530;2024-02-26T07:19:40;1.95;;;1.70;;
13202;SDS011;6666;51.626;7.530;2024-02-26T07:22:08;3.67;;;2.00;;
13202;SDS011;6666;51.626;7.530;2024-02-26T07:24:36;2.85;;;2.20;;
13202;SDS011;6666;51.626;7.530;2024-02-26T07:27:06;2.20;;;1.90;;
13202;SDS011;6666;51.626;7.530;2024-02-26T07:29:34;3.80;;;2.10;;
13202;SDS011;6666;51.626;7.530;2024-02-26T07:32:02;3.22;;;2.00;;
13202;SDS011;6666;51.626;7.530;2024-02-26T07:34:31;3.95;;;1.80;;
13202;SDS011;6666;51.626;7.530;2024-02-26T07:36:59;3.40;;;1.80;;
13202;SDS011;6666;51.626;7.530;2024-02-26T07:39:27;2.00;;;1.77;;
13202;SDS011;6666;51.626;7.530;2024-02-26T07:41:56;2.50;;;2.00;;
13202;SDS011;6666;51.626;7.530;2024-02-26T07:44:25;2.50;;;1.70;;
13202;SDS011;6666;51.626;7.530;2024-02-26T07:46:53;2.40;;;1.73;;
13202;SDS011;6666;51.626;7.530;2024-02-26T07:49:21;2.90;;;2.05;;
13202;SDS011;6666;51.626;7.530;2024-02-26T07:51:49;3.20;;;2.10;;
13202;SDS011;6666;51.626;7.530;2024-02-26T07:54:18;2.00;;;1.80;;
13202;SDS011;6666;51.626;7.530;2024-02-26T07:56:46;2.60;;;2.22;;
13202;SDS011;6666;51.626;7.530;2024-02-26T07:59:14;3.67;;;2.00;;
13202;SDS011;6666;51.626;7.530;2024-02-26T08:01:44;3.80;;;1.90;;
13202;SDS011;6666;51.626;7.530;2024-02-26T08:04:22;2.60;;;1.90;;
13202;SDS011;6666;51.626;7.530;2024-02-26T08:06:52;2.05;;;1.85;;
13202;SDS011;6666;51.626;7.530;2024-02-26T08:09:20;1.95;;;1.55;;
13202;SDS011;6666;51.626;7.530;2024-02-26T08:11:48;2.50;;;1.73;;
13202;SDS011;6666;51.626;7.530;2024-02-26T08:14:16;2.17;;;1.70;;
13202;SDS011;6666;51.626;7.530;2024-02-26T08:16:46;2.40;;;1.80;;
13202;SDS011;6666;51.626;7.530;2024-02-26T08:19:15;2.88;;;2.30;;
13202;SDS011;6666;51.626;7.530;2024-02-26T08:21:44;6.40;;;1.70;;
13202;SDS011;6666;51.626;7.530;2024-02-26T08:24:12;2.20;;;2.00;;
13202;SDS011;6666;51.626;7.530;2024-02-26T08:26:40;2.17;;;1.90;;
13202;SDS011;6666;51.626;7.530;2024-02-26T08:29:08;2.33;;;1.95;;
13202;SDS011;6666;51.626;7.530;2024-02-26T08:31:36;2.28;;;2.00;;
13202;SDS011;6666;51.626;7.530;2024-02-26T08:34:06;2.20;;;1.75;;
13202;SDS011;6666;51.626;7.530;2024-02-26T08:36:34;2.45;;;1.92;;
13202;SDS011;6666;51.626;7.530;2024-02-26T08:39:03;1.90;;;1.70;;
13202;SDS011;6666;51.626;7.530;2024-02-26T08:41:31;2.33;;;1.98;;
13202;SDS011;6666;51.626;7.530;2024-02-26T08:43:59;2.22;;;1.95;;
13202;SDS011;6666;51.626;7.530;2024-02-26T08:46:27;2.90;;;2.10;;
13202;SDS011;6666;51.626;7.530;2024-02-26T08:48:55;2.10;;;1.90;;
13202;SDS011;6666;51.626;7.530;2024-02-26T08:51:25;2.28;;;1.80;;
13202;SDS011;6666;51.626;7.530;2024-02-26T08:53:54;3.03;;;1.90;;
13202;SDS011;6666;51.626;7.530;2024-02-26T08:56:22;3.30;;;2.10;;
13202;SDS011;6666;51.626;7.530;2024-02-26T08:58:50;4.03;;;1.73;;
13202;SDS011;6666;51.626;7.530;2024-02-26T09:01:20;2.30;;;2.10;;
13202;SDS011;6666;51.626;7.530;2024-02-26T09:03:49;4.00;;;2.30;;
13202;SDS011;6666;51.626;7.530;2024-02-26T09:06:18;2.17;;;1.90;;
13202;SDS011;6666;51.626;7.530;2024-02-26T09:08:47;2.45;;;2.20;;
13202;SDS011;6666;51.626;7.530;2024-02-26T09:11:15;2.90;;;1.90;;
13202;SDS011;6666;51.626;7.530;2024-02-26T09:13:44;2.17;;;1.88;;
13202;SDS011;6666;51.626;7.530;2024-02-26T09:16:12;2.10;;;1.80;;
13202;SDS011;6666;51.626;7.530;2024-02-26T09:18:40;1.77;;;1.63;;
13202;SDS011;6666;51.626;7.530;2024-02-26T09:21:08;2.10;;;1.70;;
13202;SDS011;6666;51.626;7.530;2024-02-26T09:23:36;2.87;;;1.93;;
13202;SDS011;6666;51.626;7.530;2024-02-26T09:26:06;2.28;;;1.70;;
13202;SDS011;6666;51.626;7.530;2024-02-26T09:28:35;2.10;;;1.83;;
13202;SDS011;6666;51.626;7.530;2024-02-26T09:31:04;4.13;;;2.08;;
13202;SDS011;6666;51.626;7.530;2024-02-26T09:33:33;2.88;;;1.90;;
13202;SDS011;6666;51.626;7.530;2024-02-26T09:36:01;2.20;;;2.00;;
13202;SDS011;6666;51.626;7.530;2024-02-26T09:38:32;2.90;;;1.50;;
13202;SDS011;6666;51.626;7.530;2024-02-26T09:41:19;2.30;;;1.95;;
13202;SDS011;6666;51.626;7.530;2024-02-26T09:43:47;2.08;;;1.88;;
13202;SDS011;6666;51.626;7.530;2024-02-26T09:46:21;1.70;;;1.53;;
13202;SDS011;6666;51.626;7.530;2024-02-26T09:48:49;2.70;;;1.80;;
13202;SDS011;6666;51.626;7.530;2024-02-26T09:51:17;2.45;;;1.77;;
13202;SDS011;6666;51.626;7.530;2024-02-26T09:53:46;2.03;;;1.77;;
13202;SDS011;6666;51.626;7.530;2024-02-26T09:56:16;2.70;;;1.80;;
13202;SDS011;6666;51.626;7.530;2024-02-26T09:58:47;2.25;;;1.83;;
13202;SDS011;6666;51.626;7.530;2024-02-26T10:01:20;2.85;;;1.80;;
13202;SDS011;6666;51.626;7.530;2024-02-26T10:03:52;3.53;;;2.20;;
13202;SDS011;6666;51.626;7.530;2024-02-26T10:06:24;2.40;;;1.83;;
13202;SDS011;6666;51.626;7.530;2024-02-26T10:08:54;3.13;;;2.10;;
13202;SDS011;6666;51.626;7.530;2024-02-26T10:11:27;3.15;;;2.30;;
13202;SDS011;6666;51.626;7.530;2024-02-26T10:13:58;2.70;;;2.13;;
13202;SDS011;6666;51.626;7.530;2024-02-26T10:16:26;4.47;;;2.40;;
13202;SDS011;6666;51.626;7.530;2024-02-26T10:18:55;4.45;;;2.20;;
13202;SDS011;6666;51.626;7.530;2024-02-26T10:21:28;2.10;;;1.90;;
13202;SDS011;6666;51.626;7.530;2024-02-26T10:23:57;3.20;;;2.10;;
13202;SDS011;6666;51.626;7.530;2024-02-26T10:26:29;3.75;;;2.20;;
13202;SDS011;6666;51.626;7.530;2024-02-26T10:28:59;2.30;;;2.10;;
13202;SDS011;6666;51.626;7.530;2024-02-26T10:31:28;3.10;;;2.47;;
13202;SDS011;6666;51.626;7.530;2024-02-26T10:33:57;3.17;;;2.25;;
13202;SDS011;6666;51.626;7.530;2024-02-26T10:36:33;3.60;;;2.95;;
13202;SDS011;6666;51.626;7.530;2024-02-26T10:39:14;3.00;;;2.40;;
13202;SDS011;6666;51.626;7.530;2024-02-26T10:41:44;2.80;;;2.20;;
13202;SDS011;6666;51.626;7.530;2024-02-26T10:44:12;2.97;;;2.40;;
13202;SDS011;6666;51.626;7.530;2024-02-26T10:46:45;2.88;;;2.20;;
13202;SDS011;6666;51.626;7.530;2024-02-26T10:49:15;2.65;;;2.30;;
13202;SDS011;6666;51.626;7.530;2024-02-26T10:51:49;3.08;;;2.20;;
13202;SDS011;6666;51.626;7.530;2024-02-26T10:54:23;3.40;;;2.10;;
13202;SDS011;6666;51.626;7.530;2024-02-26T10:56:56;4.35;;;2.45;;
13202;SDS011;6666;51.626;7.530;2024-02-26T10:59:26;3.63;;;2.90;;
13202;SDS011;6666;51.626;7.530;2024-02-26T11:01:54;3.00;;;2.70;;
13202;SDS011;6666;51.626;7.530;2024-02-26T11:04:23;3.72;;;3.10;;
13202;SDS011;6666;51.626;7.530;2024-02-26T11:06:54;6.30;;;3.20;;
13202;SDS011;6666;51.626;7.530;2024-02-26T11:09:25;5.80;;;3.40;;
13202;SDS011;6666;51.626;7.530;2024-02-26T11:11:54;4.35;;;3.17;;
13202;SDS011;6666;51.626;7.530;2024-02-26T11:14:27;7.00;;;3.50;;
13202;SDS011;6666;51.626;7.530;2024-02-26T11:16:57;5.30;;;3.70;;
13202;SDS011;6666;51.626;7.530;2024-02-26T11:19:27;7.88;;;4.05;;
13202;SDS011;6666;51.626;7.530;2024-02-26T11:22:00;5.28;;;3.70;;
13202;SDS011;6666;51.626;7.530;2024-02-26T11:24:44;5.75;;;3.90;;
13202;SDS011;6666;51.626;7.530;2024-02-26T11:27:13;6.22;;;4.28;;
13202;SDS011;6666;51.626;7.530;2024-02-26T11:29:46;5.22;;;4.20;;
13202;SDS011;6666;51.626;7.530;2024-02-26T11:32:17;6.55;;;4.55;;
13202;SDS011;6666;51.626;7.530;2024-02-26T11:34:46;6.95;;;4.80;;
13202;SDS011;6666;51.626;7.530;2024-02-26T11:37:16;7.00;;;4.70;;
13202;SDS011;6666;51.626;7.530;2024-02-26T11:39:44;8.13;;;4.60;;
13202;SDS011;6666;51.626;7.530;2024-02-26T11:42:15;7.68;;;4.97;;
13202;SDS011;6666;51.626;7.530;2024-02-26T11:44:44;6.68;;;5.05;;
13202;SDS011;6666;51.626;7.530;2024-02-26T11:47:13;7.37;;;5.03;;
13202;SDS011;6666;51.626;7.530;2024-02-26T11:49:45;6.75;;;4.90;;
13202;SDS011;6666;51.626;7.530;2024-02-26T11:52:14;7.40;;;4.97;;
13202;SDS011;6666;51.626;7.530;2024-02-26T11:54:43;6.90;;;5.10;;
13202;SDS011;6666;51.626;7.530;2024-02-26T11:57:24;5.60;;;4.10;;
13202;SDS011;6666;51.626;7.530;2024-02-26T11:59:54;7.10;;;4.90;;
13202;SDS011;6666;51.626;7.530;2024-02-26T12:05:15;6.75;;;4.50;;
13202;SDS011;6666;51.626;7.530;2024-02-26T12:07:45;6.13;;;4.30;;
13202;SDS011;6666;51.626;7.530;2024-02-26T12:10:14;6.47;;;3.90;;
13202;SDS011;6666;51.626;7.530;2024-02-26T12:12:54;6.70;;;4.00;;
13202;SDS011;6666;51.626;7.530;2024-02-26T12:15:31;5.90;;;4.20;;
13202;SDS011;6666;51.626;7.530;2024-02-26T12:18:02;5.30;;;3.90;;
13202;SDS011;6666;51.626;7.530;2024-02-26T12:20:31;8.02;;;4.25;;
13202;SDS011;6666;51.626;7.530;2024-02-26T12:23:00;6.00;;;4.28;;
13202;SDS011;6666;51.626;7.530;2024-02-26T12:25:30;5.80;;;3.92;;
13202;SDS011;6666;51.626;7.530;2024-02-26T12:28:03;5.40;;;3.97;;
13202;SDS011;6666;51.626;7.530;2024-02-26T12:30:31;5.60;;;3.97;;
13202;SDS011;6666;51.626;7.530;2024-02-26T12:32:59;4.72;;;3.90;;
13202;SDS011;6666;51.626;7.530;2024-02-26T12:35:29;5.00;;;4.35;;
13202;SDS011;6666;51.626;7.530;2024-02-26T12:37:58;5.70;;;3.75;;
13202;SDS011;6666;51.626;7.530;2024-02-26T12:40:27;6.10;;;3.90;;
13202;SDS011;6666;51.626;7.530;2024-02-26T12:42:55;4.80;;;3.88;;
13202;SDS011;6666;51.626;7.530;2024-02-26T12:45:25;5.80;;;4.20;;
13202;SDS011;6666;51.626;7.530;2024-02-26T12:47:54;5.57;;;3.80;;
13202;SDS011;6666;51.626;7.530;2024-02-26T12:50:23;6.13;;;4.10;;
13202;SDS011;6666;51.626;7.530;2024-02-26T12:52:51;5.50;;;3.97;;
13202;SDS011;6666;51.626;7.530;2024-02-26T12:55:21;5.00;;;3.80;;
13202;SDS011;6666;51.626;7.530;2024-02-26T12:57:49;6.87;;;3.90;;
13202;SDS011;6666;51.626;7.530;2024-02-26T13:00:20;6.60;;;3.90;;
13202;SDS011;6666;51.626;7.530;2024-02-26T13:02:52;5.70;;;4.00;;
13202;SDS011;6666;51.626;7.530;2024-02-26T13:05:23;7.22;;;4.20;;
13202;SDS011;6666;51.626;7.530;2024-02-26T13:07:52;4.57;;;3.70;;
13202;SDS011;6666;51.626;7.530;2024-02-26T13:10:21;6.18;;;4.00;;
13202;SDS011;6666;51.626;7.530;2024-02-26T13:12:49;4.93;;;3.90;;
13202;SDS011;6666;51.626;7.530;2024-02-26T13:15:18;6.20;;;3.70;;
13202;SDS011;6666;51.626;7.530;2024-02-26T13:17:48;5.60;;;4.00;;
13202;SDS011;6666;51.626;7.530;2024-02-26T13:20:26;10.47;;;3.90;;
13202;SDS011;6666;51.626;7.530;2024-02-26T13:23:02;8.30;;;4.00;;
13202;SDS011;6666;51.626;7.530;2024-02-26T13:25:31;7.22;;;4.00;;
13202;SDS011;6666;51.626;7.530;2024-02-26T13:28:06;5.70;;;4.03;;
13202;SDS011;6666;51.626;7.530;2024-02-26T13:30:36;8.95;;;3.92;;
13202;SDS011;6666;51.626;7.530;2024-02-26T13:33:09;5.30;;;4.10;;
13202;SDS011;6666;51.626;7.530;2024-02-26T13:35:40;5.15;;;3.90;;
13202;SDS011;6666;51.626;7.530;2024-02-26T13:38:08;6.00;;;3.80;;
13202;SDS011;6666;51.626;7.530;2024-02-26T13:40:38;8.35;;;4.40;;
13202;SDS011;6666;51.626;7.530;2024-02-26T13:43:06;6.57;;;3.97;;
13202;SDS011;6666;51.626;7.530;2024-02-26T13:45:35;5.25;;;4.20;;
13202;SDS011;6666;51.626;7.530;2024-02-26T13:48:05;5.15;;;3.70;;
13202;SDS011;6666;51.626;7.530;2024-02-26T13:50:36;5.70;;;3.80;;
13202;SDS011;6666;51.626;7.530;2024-02-26T13:53:06;5.10;;;4.00;;
13202;SDS011;6666;51.626;7.530;2024-02-26T13:55:34;4.93;;;3.95;;
13202;SDS011;6666;51.626;7.530;2024-02-26T13:58:02;5.38;;;3.83;;
13202;SDS011;6666;51.626;7.530;2024-02-26T14:00:31;5.38;;;3.90;;
13202;SDS011;6666;51.626;7.530;2024-02-26T14:03:00;5.10;;;3.60;;
13202;SDS011;6666;51.626;7.530;2024-02-26T14:05:29;5.28;;;3.70;;
13202;SDS011;6666;51.626;7.530;2024-02-26T14:07:57;8.40;;;4.30;;
13202;SDS011;6666;51.626;7.530;2024-02-26T14:10:27;4.70;;;3.40;;
13202;SDS011;6666;51.626;7.530;2024-02-26T14:12:57;4.65;;;3.40;;
13202;SDS011;6666;51.626;7.530;2024-02-26T14:15:26;5.60;;;4.10;;
13202;SDS011;6666;51.626;7.530;2024-02-26T14:17:55;7.20;;;3.70;;
13202;SDS011;6666;51.626;7.530;2024-02-26T14:20:24;4.13;;;3.40;;
13202;SDS011;6666;51.626;7.530;2024-02-26T14:22:53;4.70;;;3.60;;
13202;SDS011;6666;51.626;7.530;2024-02-26T14:25:21;3.83;;;3.33;;
13202;SDS011;6666;51.626;7.530;2024-02-26T14:27:54;4.80;;;3.20;;
13202;SDS011;6666;51.626;7.530;2024-02-26T14:30:23;4.83;;;3.73;;
13202;SDS011;6666;51.626;7.530;2024-02-26T14:32:52;3.97;;;3.30;;
13202;SDS011;6666;51.626;7.530;2024-02-26T14:35:21;3.85;;;3.05;;
13202;SDS011;6666;51.626;7.530;2024-02-26T14:37:49;4.22;;;3.35;;
13202;SDS011;6666;51.626;7.530;2024-02-26T14:40:18;3.50;;;3.20;;
13202;SDS011;6666;51.626;7.530;2024-02-26T14:42:46;3.13;;;2.65;;
13202;SDS011;6666;51.626;7.530;2024-02-26T14:45:16;4.60;;;3.20;;
13202;SDS011;6666;51.626;7.530;2024-02-26T14:47:44;3.63;;;2.83;;
13202;SDS011;6666;51.626;7.530;2024-02-26T14:50:13;4.13;;;2.70;;
13202;SDS011;6666;51.626;7.530;2024-02-26T14:52:41;4.30;;;2.60;;
13202;SDS011;6666;51.626;7.530;2024-02-26T14:55:09;4.20;;;3.30;;
13202;SDS011;6666;51.626;7.530;2024-02-26T14:57:37;3.00;;;2.70;;
13202;SDS011;6666;51.626;7.530;2024-02-26T15:00:06;6.45;;;3.80;;
13202;SDS011;6666;51.626;7.530;2024-02-26T15:02:37;3.78;;;3.28;;
13202;SDS011;6666;51.626;7.530;2024-02-26T15:05:06;3.05;;;2.60;;
13202;SDS011;6666;51.626;7.530;2024-02-26T15:07:35;3.00;;;2.40;;
13202;SDS011;6666;51.626;7.530;2024-02-26T15:10:07;2.33;;;2.13;;
13202;SDS011;6666;51.626;7.530;2024-02-26T15:12:35;3.28;;;2.15;;
13202;SDS011;6666;51.626;7.530;2024-02-26T15:15:04;2.20;;;2.00;;